Crystal, Idaho
Current Conditions -  °F | °C
As of 5:53 PM on Saturday 20 Dec 2014 (Local Time) from KONO Reporting Station
Light Rain Light Rain  
Wind Chill: 40°   Ceiling: 3200
Heat Index: 44°   Visibility: 5mi
Dew Point: 42°   Wind: 8mph
Humidity: 93%   Direction: 150°SSE
Pressure: 29.93"   Gusts: NA
Location:  44.398°N, 116.943°W
Report Text: KONO 210053Z AUTO 15007KT 5SM -RA BR FEW027 OVC032 07/06 A2993 RMK AO2 SLP149 P0011 T00670056
Loading
Personal Weather Stations






























Interactive Weather Map New forecast layout! Learn more

10-Day Weather Forecast

Advertisements
Track Severe Weather on mobile